sensor_id;sensor_type;location;lat;lon;timestamp;pressure;altitude;pressure_sealevel;temperature;humidity
45941;BME280;31858;46.008;8.978;2023-03-21T00:02:17;94742.31;;;9.89;100.00
45941;BME280;31858;46.008;8.978;2023-03-21T00:12:20;94729.84;;;9.66;100.00
45941;BME280;31858;46.008;8.978;2023-03-21T00:22:22;94720.41;;;9.72;100.00
45941;BME280;31858;46.008;8.978;2023-03-21T00:32:25;94705.09;;;9.62;100.00
45941;BME280;31858;46.008;8.978;2023-03-21T00:42:27;94680.75;;;9.60;100.00
45941;BME280;31858;46.008;8.978;2023-03-21T00:52:30;94682.28;;;9.61;100.00
45941;BME280;31858;46.008;8.978;2023-03-21T01:02:31;94666.13;;;9.47;100.00
45941;BME280;31858;46.008;8.978;2023-03-21T01:12:34;94665.22;;;9.36;100.00
45941;BME280;31858;46.008;8.978;2023-03-21T01:22:36;94659.22;;;9.42;100.00
45941;BME280;31858;46.008;8.978;2023-03-21T01:32:39;94654.47;;;9.29;100.00
45941;BME280;31858;46.008;8.978;2023-03-21T01:42:41;94641.97;;;9.29;100.00
45941;BME280;31858;46.008;8.978;2023-03-21T01:52:43;94641.66;;;9.34;100.00
45941;BME280;31858;46.008;8.978;2023-03-21T02:02:49;94633.25;;;9.32;100.00
45941;BME280;31858;46.008;8.978;2023-03-21T02:12:56;94632.25;;;9.14;100.00
45941;BME280;31858;46.008;8.978;2023-03-21T02:23:13;94617.78;;;9.11;100.00
45941;BME280;31858;46.008;8.978;2023-03-21T02:44:06;94610.69;;;9.19;100.00
45941;BME280;31858;46.008;8.978;2023-03-21T02:54:11;94604.69;;;8.96;100.00
45941;BME280;31858;46.008;8.978;2023-03-21T03:04:19;94595.22;;;8.72;100.00
45941;BME280;31858;46.008;8.978;2023-03-21T03:14:42;94578.78;;;8.89;100.00
45941;BME280;31858;46.008;8.978;2023-03-21T03:24:55;94572.50;;;8.74;100.00
45941;BME280;31858;46.008;8.978;2023-03-21T03:34:59;94568.34;;;8.77;100.00
45941;BME280;31858;46.008;8.978;2023-03-21T03:45:03;94569.88;;;8.52;100.00
45941;BME280;31858;46.008;8.978;2023-03-21T03:55:06;94570.66;;;8.52;100.00
45941;BME280;31858;46.008;8.978;2023-03-21T04:05:11;94582.13;;;8.33;100.00
45941;BME280;31858;46.008;8.978;2023-03-21T04:15:14;94581.41;;;8.36;100.00
45941;BME280;31858;46.008;8.978;2023-03-21T04:25:17;94575.00;;;8.18;100.00
45941;BME280;31858;46.008;8.978;2023-03-21T04:35:19;94572.78;;;8.20;100.00
45941;BME280;31858;46.008;8.978;2023-03-21T04:45:22;94572.41;;;8.22;100.00
45941;BME280;31858;46.008;8.978;2023-03-21T04:55:23;94569.69;;;8.18;100.00
45941;BME280;31858;46.008;8.978;2023-03-21T05:05:28;94564.44;;;7.99;100.00
45941;BME280;31858;46.008;8.978;2023-03-21T05:15:30;94554.78;;;8.10;100.00
45941;BME280;31858;46.008;8.978;2023-03-21T05:25:33;94554.59;;;7.99;100.00
45941;BME280;31858;46.008;8.978;2023-03-21T05:35:37;94559.38;;;8.13;100.00
45941;BME280;31858;46.008;8.978;2023-03-21T05:45:40;94568.09;;;8.13;100.00
45941;BME280;31858;46.008;8.978;2023-03-21T05:55:42;94575.38;;;8.16;100.00
45941;BME280;31858;46.008;8.978;2023-03-21T06:05:45;94583.75;;;8.18;100.00
45941;BME280;31858;46.008;8.978;2023-03-21T06:15:47;94581.38;;;8.13;100.00
45941;BME280;31858;46.008;8.978;2023-03-21T06:25:50;94576.91;;;8.17;100.00
45941;BME280;31858;46.008;8.978;2023-03-21T06:35:51;94578.19;;;8.04;100.00
45941;BME280;31858;46.008;8.978;2023-03-21T06:45:54;94572.94;;;8.08;100.00
45941;BME280;31858;46.008;8.978;2023-03-21T06:55:56;94578.19;;;8.04;100.00
45941;BME280;31858;46.008;8.978;2023-03-21T07:06:03;94573.31;;;8.06;100.00
45941;BME280;31858;46.008;8.978;2023-03-21T07:16:07;94585.50;;;8.11;100.00
45941;BME280;31858;46.008;8.978;2023-03-21T07:26:10;94571.75;;;8.28;100.00
45941;BME280;31858;46.008;8.978;2023-03-21T07:36:13;94569.53;;;8.53;100.00
45941;BME280;31858;46.008;8.978;2023-03-21T07:46:16;94568.22;;;8.66;100.00
45941;BME280;31858;46.008;8.978;2023-03-21T07:56:18;94578.38;;;8.61;100.00
45941;BME280;31858;46.008;8.978;2023-03-21T08:06:26;94584.81;;;8.60;100.00
45941;BME280;31858;46.008;8.978;2023-03-21T08:16:27;94588.88;;;8.54;100.00
45941;BME280;31858;46.008;8.978;2023-03-21T08:26:30;94584.81;;;8.60;100.00
45941;BME280;31858;46.008;8.978;2023-03-21T08:36:34;94585.31;;;8.69;100.00
45941;BME280;31858;46.008;8.978;2023-03-21T08:46:37;94597.38;;;8.89;100.00
45941;BME280;31858;46.008;8.978;2023-03-21T08:56:39;94599.88;;;9.35;100.00
45941;BME280;31858;46.008;8.978;2023-03-21T09:06:42;94585.03;;;9.67;100.00
45941;BME280;31858;46.008;8.978;2023-03-21T09:16:44;94577.63;;;9.84;100.00
45941;BME280;31858;46.008;8.978;2023-03-21T09:26:47;94573.63;;;10.04;100.00
45941;BME280;31858;46.008;8.978;2023-03-21T09:36:50;94582.66;;;10.29;100.00
45941;BME280;31858;46.008;8.978;2023-03-21T09:46:59;94584.03;;;10.64;100.00
45941;BME280;31858;46.008;8.978;2023-03-21T09:57:10;94575.63;;;11.17;100.00
45941;BME280;31858;46.008;8.978;2023-03-21T10:07:17;94580.31;;;11.41;100.00
45941;BME280;31858;46.008;8.978;2023-03-21T10:17:26;94581.53;;;11.61;100.00
45941;BME280;31858;46.008;8.978;2023-03-21T10:27:30;94582.00;;;11.92;100.00
45941;BME280;31858;46.008;8.978;2023-03-21T10:37:33;94578.63;;;12.20;100.00
45941;BME280;31858;46.008;8.978;2023-03-21T10:47:36;94579.03;;;12.32;100.00
45941;BME280;31858;46.008;8.978;2023-03-21T10:57:38;94578.28;;;12.53;100.00
45941;BME280;31858;46.008;8.978;2023-03-21T11:07:41;94575.22;;;12.62;100.00
45941;BME280;31858;46.008;8.978;2023-03-21T11:17:43;94564.88;;;12.85;100.00
45941;BME280;31858;46.008;8.978;2023-03-21T11:27:49;94558.31;;;13.11;100.00
45941;BME280;31858;46.008;8.978;2023-03-21T11:37:54;94552.16;;;13.32;100.00
45941;BME280;31858;46.008;8.978;2023-03-21T11:47:58;94539.06;;;13.62;100.00
45941;BME280;31858;46.008;8.978;2023-03-21T11:58:12;94515.66;;;13.74;100.00
45941;BME280;31858;46.008;8.978;2023-03-21T12:08:29;94510.34;;;14.25;100.00
45941;BME280;31858;46.008;8.978;2023-03-21T12:18:49;94503.81;;;14.30;100.00
45941;BME280;31858;46.008;8.978;2023-03-21T12:29:20;94490.19;;;14.07;100.00
45941;BME280;31858;46.008;8.978;2023-03-21T12:39:29;94476.53;;;14.38;100.00
45941;BME280;31858;46.008;8.978;2023-03-21T12:49:34;94474.69;;;14.73;100.00
45941;BME280;31858;46.008;8.978;2023-03-21T12:59:40;94455.13;;;14.76;100.00
45941;BME280;31858;46.008;8.978;2023-03-21T13:09:46;94434.81;;;15.09;100.00
45941;BME280;31858;46.008;8.978;2023-03-21T13:19:53;94418.69;;;15.43;100.00
45941;BME280;31858;46.008;8.978;2023-03-21T13:30:03;94416.69;;;15.47;98.45
45941;BME280;31858;46.008;8.978;2023-03-21T13:40:20;94409.81;;;15.46;97.29
45941;BME280;31858;46.008;8.978;2023-03-21T13:50:29;94392.41;;;15.58;97.12
45941;BME280;31858;46.008;8.978;2023-03-21T14:00:38;94388.84;;;15.64;91.65
45941;BME280;31858;46.008;8.978;2023-03-21T14:10:44;94378.59;;;15.56;89.91
45941;BME280;31858;46.008;8.978;2023-03-21T14:20:51;94380.97;;;15.50;84.30
45941;BME280;31858;46.008;8.978;2023-03-21T14:30:57;94377.34;;;15.37;84.85
45941;BME280;31858;46.008;8.978;2023-03-21T14:40:59;94352.53;;;15.29;87.60
45941;BME280;31858;46.008;8.978;2023-03-21T14:51:03;94350.50;;;15.37;79.72
45941;BME280;31858;46.008;8.978;2023-03-21T15:01:13;94346.13;;;15.20;80.29
45941;BME280;31858;46.008;8.978;2023-03-21T15:11:17;94341.94;;;15.19;76.44
45941;BME280;31858;46.008;8.978;2023-03-21T15:21:20;94327.81;;;15.15;77.86
45941;BME280;31858;46.008;8.978;2023-03-21T15:31:33;94336.22;;;14.86;77.05
45941;BME280;31858;46.008;8.978;2023-03-21T15:41:35;94328.53;;;14.58;81.57
45941;BME280;31858;46.008;8.978;2023-03-21T15:51:39;94331.81;;;14.35;78.26
45941;BME280;31858;46.008;8.978;2023-03-21T16:01:41;94331.56;;;14.26;79.07
45941;BME280;31858;46.008;8.978;2023-03-21T16:11:49;94320.16;;;14.18;81.18
45941;BME280;31858;46.008;8.978;2023-03-21T16:21:51;94319.13;;;14.05;81.93
45941;BME280;31858;46.008;8.978;2023-03-21T16:31:54;94326.09;;;13.99;84.71
45941;BME280;31858;46.008;8.978;2023-03-21T16:41:55;94332.69;;;13.87;85.44
45941;BME280;31858;46.008;8.978;2023-03-21T16:51:58;94343.50;;;13.77;86.13
45941;BME280;31858;46.008;8.978;2023-03-21T17:02:00;94334.00;;;13.68;86.91
45941;BME280;31858;46.008;8.978;2023-03-21T17:12:04;94337.13;;;13.60;87.74
45941;BME280;31858;46.008;8.978;2023-03-21T17:22:09;94340.69;;;13.46;91.87
45941;BME280;31858;46.008;8.978;2023-03-21T17:32:12;94344.22;;;13.32;98.18
45941;BME280;31858;46.008;8.978;2023-03-21T17:42:14;94343.50;;;13.25;100.00
45941;BME280;31858;46.008;8.978;2023-03-21T17:52:18;94353.84;;;13.23;98.43
45941;BME280;31858;46.008;8.978;2023-03-21T18:02:20;94348.19;;;13.03;100.00
45941;BME280;31858;46.008;8.978;2023-03-21T18:12:23;94357.06;;;12.89;100.00
45941;BME280;31858;46.008;8.978;2023-03-21T18:22:24;94361.25;;;12.94;100.00
45941;BME280;31858;46.008;8.978;2023-03-21T18:32:27;94368.94;;;12.85;100.00
45941;BME280;31858;46.008;8.978;2023-03-21T18:42:29;94376.59;;;12.79;100.00
45941;BME280;31858;46.008;8.978;2023-03-21T18:52:32;94375.75;;;12.96;100.00
45941;BME280;31858;46.008;8.978;2023-03-21T19:02:33;94382.69;;;12.83;100.00
45941;BME280;31858;46.008;8.978;2023-03-21T19:12:36;94382.75;;;12.69;100.00
45941;BME280;31858;46.008;8.978;2023-03-21T19:22:38;94393.84;;;12.64;100.00
45941;BME280;31858;46.008;8.978;2023-03-21T19:32:41;94390.41;;;12.60;100.00
45941;BME280;31858;46.008;8.978;2023-03-21T19:42:43;94388.94;;;12.41;100.00
45941;BME280;31858;46.008;8.978;2023-03-21T19:52:46;94401.94;;;12.35;100.00
45941;BME280;31858;46.008;8.978;2023-03-21T20:02:47;94390.13;;;12.26;100.00
45941;BME280;31858;46.008;8.978;2023-03-21T20:12:51;94393.94;;;12.14;100.00
45941;BME280;31858;46.008;8.978;2023-03-21T20:22:53;94382.13;;;12.12;100.00
45941;BME280;31858;46.008;8.978;2023-03-21T20:32:58;94382.91;;;11.98;100.00
45941;BME280;31858;46.008;8.978;2023-03-21T20:43:00;94390.53;;;11.89;100.00
45941;BME280;31858;46.008;8.978;2023-03-21T20:53:05;94394.72;;;11.86;100.00
45941;BME280;31858;46.008;8.978;2023-03-21T21:03:08;94396.63;;;11.71;100.00
45941;BME280;31858;46.008;8.978;2023-03-21T21:13:13;94402.34;;;11.59;100.00
45941;BME280;31858;46.008;8.978;2023-03-21T21:23:14;94401.19;;;11.53;100.00
45941;BME280;31858;46.008;8.978;2023-03-21T21:33:17;94399.66;;;11.45;100.00
45941;BME280;31858;46.008;8.978;2023-03-21T21:43:20;94397.00;;;11.41;100.00
45941;BME280;31858;46.008;8.978;2023-03-21T21:53:23;94390.53;;;11.46;100.00
45941;BME280;31858;46.008;8.978;2023-03-21T22:03:27;94398.88;;;11.27;100.00
45941;BME280;31858;46.008;8.978;2023-03-21T22:13:37;94396.59;;;11.29;100.00
45941;BME280;31858;46.008;8.978;2023-03-21T22:23:38;94395.06;;;11.21;100.00
45941;BME280;31858;46.008;8.978;2023-03-21T22:33:44;94395.78;;;11.14;100.00
45941;BME280;31858;46.008;8.978;2023-03-21T22:43:47;94400.72;;;11.08;100.00
45941;BME280;31858;46.008;8.978;2023-03-21T22:53:50;94400.69;;;10.98;100.00
45941;BME280;31858;46.008;8.978;2023-03-21T23:03:52;94409.47;;;10.98;100.00
45941;BME280;31858;46.008;8.978;2023-03-21T23:13:55;94418.56;;;10.90;100.00
45941;BME280;31858;46.008;8.978;2023-03-21T23:23:57;94411.31;;;10.84;100.00
45941;BME280;31858;46.008;8.978;2023-03-21T23:34:01;94407.81;;;10.69;100.00
45941;BME280;31858;46.008;8.978;2023-03-21T23:44:02;94407.81;;;10.69;100.00
45941;BME280;31858;46.008;8.978;2023-03-21T23:54:05;94403.59;;;10.61;100.00
